sensor_id;sensor_type;location;lat;lon;timestamp;pressure;altitude;pressure_sealevel;temperature;humidity
73629;BME280;61924;53.268;-2.458;2023-02-28T00:01:37;103209.88;;;16.29;31.72
73629;BME280;61924;53.268;-2.458;2023-02-28T00:04:03;103210.87;;;16.60;31.52
73629;BME280;61924;53.268;-2.458;2023-02-28T00:06:29;103212.37;;;16.67;31.52
73629;BME280;61924;53.268;-2.458;2023-02-28T00:08:54;103211.96;;;16.50;31.60
73629;BME280;61924;53.268;-2.458;2023-02-28T00:11:19;103210.97;;;16.33;31.53
73629;BME280;61924;53.268;-2.458;2023-02-28T00:13:45;103212.09;;;16.31;31.61
73629;BME280;61924;53.268;-2.458;2023-02-28T00:16:12;103215.54;;;16.14;31.76
73629;BME280;61924;53.268;-2.458;2023-02-28T00:18:36;103217.56;;;16.12;31.78
73629;BME280;61924;53.268;-2.458;2023-02-28T00:21:01;103212.37;;;16.34;31.67
73629;BME280;61924;53.268;-2.458;2023-02-28T00:23:27;103216.50;;;16.09;31.67
73629;BME280;61924;53.268;-2.458;2023-02-28T00:25:52;103215.73;;;16.22;31.56
73629;BME280;61924;53.268;-2.458;2023-02-28T00:28:17;103216.05;;;16.06;31.68
73629;BME280;61924;53.268;-2.458;2023-02-28T00:30:43;103219.68;;;16.20;31.55
73629;BME280;61924;53.268;-2.458;2023-02-28T00:33:08;103219.52;;;16.39;31.60
73629;BME280;61924;53.268;-2.458;2023-02-28T00:35:33;103221.85;;;15.94;31.78
73629;BME280;61924;53.268;-2.458;2023-02-28T00:37:59;103220.71;;;16.13;31.58
73629;BME280;61924;53.268;-2.458;2023-02-28T00:40:24;103220.24;;;16.18;31.58
73629;BME280;61924;53.268;-2.458;2023-02-28T00:42:50;103218.61;;;16.11;31.54
73629;BME280;61924;53.268;-2.458;2023-02-28T00:45:15;103222.44;;;15.93;31.71
73629;BME280;61924;53.268;-2.458;2023-02-28T00:47:41;103218.16;;;15.80;31.77
73629;BME280;61924;53.268;-2.458;2023-02-28T00:50:07;103218.25;;;15.83;31.66
73629;BME280;61924;53.268;-2.458;2023-02-28T00:52:32;103217.80;;;16.19;31.53
73629;BME280;61924;53.268;-2.458;2023-02-28T00:54:58;103220.38;;;15.65;31.82
73629;BME280;61924;53.268;-2.458;2023-02-28T00:57:23;103223.56;;;16.02;31.56
73629;BME280;61924;53.268;-2.458;2023-02-28T00:59:48;103224.72;;;15.97;31.56
73629;BME280;61924;53.268;-2.458;2023-02-28T01:02:14;103225.56;;;15.75;31.60
73629;BME280;61924;53.268;-2.458;2023-02-28T01:04:40;103231.21;;;15.79;31.62
73629;BME280;61924;53.268;-2.458;2023-02-28T01:07:05;103230.78;;;15.40;31.87
73629;BME280;61924;53.268;-2.458;2023-02-28T01:09:31;103230.14;;;15.71;31.68
73629;BME280;61924;53.268;-2.458;2023-02-28T01:11:56;103230.63;;;15.31;31.79
73629;BME280;61924;53.268;-2.458;2023-02-28T01:14:22;103232.66;;;15.39;31.77
73629;BME280;61924;53.268;-2.458;2023-02-28T01:16:47;103233.24;;;15.85;31.51
73629;BME280;61924;53.268;-2.458;2023-02-28T01:19:12;103235.76;;;15.45;31.68
73629;BME280;61924;53.268;-2.458;2023-02-28T01:21:37;103236.88;;;15.51;31.63
73629;BME280;61924;53.268;-2.458;2023-02-28T01:24:03;103236.73;;;15.15;31.76
73629;BME280;61924;53.268;-2.458;2023-02-28T01:26:28;103235.89;;;15.37;31.82
73629;BME280;61924;53.268;-2.458;2023-02-28T01:28:53;103229.11;;;15.52;31.59
73629;BME280;61924;53.268;-2.458;2023-02-28T01:31:19;103231.83;;;15.64;31.63
73629;BME280;61924;53.268;-2.458;2023-02-28T01:33:44;103235.37;;;15.35;31.55
73629;BME280;61924;53.268;-2.458;2023-02-28T01:36:11;103235.29;;;15.35;31.70
73629;BME280;61924;53.268;-2.458;2023-02-28T01:38:35;103235.48;;;15.16;31.74
73629;BME280;61924;53.268;-2.458;2023-02-28T01:41:01;103231.38;;;15.50;31.62
73629;BME280;61924;53.268;-2.458;2023-02-28T01:43:27;103232.47;;;14.97;31.75
73629;BME280;61924;53.268;-2.458;2023-02-28T01:45:52;103233.54;;;15.25;31.82
73629;BME280;61924;53.268;-2.458;2023-02-28T01:48:18;103234.76;;;15.25;31.74
73629;BME280;61924;53.268;-2.458;2023-02-28T01:50:46;103234.95;;;14.95;31.79
73629;BME280;61924;53.268;-2.458;2023-02-28T01:53:12;103242.09;;;15.08;31.67
73629;BME280;61924;53.268;-2.458;2023-02-28T01:55:34;103235.11;;;15.28;31.65
73629;BME280;61924;53.268;-2.458;2023-02-28T01:58:02;103233.86;;;15.18;31.72
73629;BME280;61924;53.268;-2.458;2023-02-28T02:00:27;103236.95;;;15.06;31.65
73629;BME280;61924;53.268;-2.458;2023-02-28T02:02:55;103238.89;;;15.43;31.66
73629;BME280;61924;53.268;-2.458;2023-02-28T02:05:18;103239.80;;;15.36;31.68
73629;BME280;61924;53.268;-2.458;2023-02-28T02:07:44;103240.29;;;14.95;31.79
73629;BME280;61924;53.268;-2.458;2023-02-28T02:10:12;103237.14;;;14.98;31.61
73629;BME280;61924;53.268;-2.458;2023-02-28T02:12:44;103236.98;;;15.19;31.71
73629;BME280;61924;53.268;-2.458;2023-02-28T02:15:03;103232.02;;;14.64;31.82
73629;BME280;61924;53.268;-2.458;2023-02-28T02:17:30;103234.67;;;14.93;31.80
73629;BME280;61924;53.268;-2.458;2023-02-28T02:20:24;103235.39;;;14.98;31.81
73629;BME280;61924;53.268;-2.458;2023-02-28T02:22:38;103233.82;;;15.03;31.95
73629;BME280;61924;53.268;-2.458;2023-02-28T02:24:58;103235.18;;;14.87;32.05
73629;BME280;61924;53.268;-2.458;2023-02-28T02:27:18;103239.52;;;14.32;32.13
73629;BME280;61924;53.268;-2.458;2023-02-28T02:34:27;103236.77;;;14.89;32.92
73629;BME280;61924;53.268;-2.458;2023-02-28T02:36:40;103234.71;;;14.49;32.99
73629;BME280;61924;53.268;-2.458;2023-02-28T02:39:07;103238.53;;;14.20;32.65
73629;BME280;61924;53.268;-2.458;2023-02-28T02:41:34;103236.24;;;14.67;32.44
73629;BME280;61924;53.268;-2.458;2023-02-28T02:43:57;103238.46;;;14.38;32.25
73629;BME280;61924;53.268;-2.458;2023-02-28T02:46:23;103239.24;;;14.58;32.04
73629;BME280;61924;53.268;-2.458;2023-02-28T02:48:45;103238.34;;;14.64;31.95
73629;BME280;61924;53.268;-2.458;2023-02-28T02:51:13;103232.95;;;14.76;31.92
73629;BME280;61924;53.268;-2.458;2023-02-28T02:53:40;103230.72;;;14.75;31.83
73629;BME280;61924;53.268;-2.458;2023-02-28T02:56:02;103230.12;;;14.69;31.84
73629;BME280;61924;53.268;-2.458;2023-02-28T02:58:30;103225.13;;;14.58;31.89
73629;BME280;61924;53.268;-2.458;2023-02-28T03:00:54;103222.07;;;14.76;31.90
73629;BME280;61924;53.268;-2.458;2023-02-28T03:03:18;103222.42;;;14.27;32.00
73629;BME280;61924;53.268;-2.458;2023-02-28T03:05:45;103226.42;;;14.23;31.94
73629;BME280;61924;53.268;-2.458;2023-02-28T03:08:08;103225.71;;;13.93;32.00
73629;BME280;61924;53.268;-2.458;2023-02-28T03:10:36;103225.24;;;14.41;31.86
73629;BME280;61924;53.268;-2.458;2023-02-28T03:13:09;103228.93;;;14.16;31.90
73629;BME280;61924;53.268;-2.458;2023-02-28T03:15:27;103229.44;;;14.30;31.91
73629;BME280;61924;53.268;-2.458;2023-02-28T03:17:57;103231.18;;;14.03;32.07
73629;BME280;61924;53.268;-2.458;2023-02-28T03:20:18;103231.89;;;14.57;31.83
73629;BME280;61924;53.268;-2.458;2023-02-28T03:22:49;103235.15;;;14.74;31.83
73629;BME280;61924;53.268;-2.458;2023-02-28T03:25:08;103238.52;;;14.39;31.86
73629;BME280;61924;53.268;-2.458;2023-02-28T03:27:34;103238.79;;;14.33;31.95
73629;BME280;61924;53.268;-2.458;2023-02-28T03:30:00;103241.28;;;14.57;31.75
73629;BME280;61924;53.268;-2.458;2023-02-28T03:32:25;103238.26;;;14.16;32.00
73629;BME280;61924;53.268;-2.458;2023-02-28T03:34:50;103234.11;;;14.63;31.81
73629;BME280;61924;53.268;-2.458;2023-02-28T03:37:13;103229.48;;;14.11;32.01
73629;BME280;61924;53.268;-2.458;2023-02-28T03:39:40;103229.91;;;14.24;31.92
73629;BME280;61924;53.268;-2.458;2023-02-28T03:42:05;103230.46;;;14.39;31.99
73629;BME280;61924;53.268;-2.458;2023-02-28T03:44:30;103233.66;;;14.17;31.95
73629;BME280;61924;53.268;-2.458;2023-02-28T03:46:56;103230.22;;;14.33;31.90
73629;BME280;61924;53.268;-2.458;2023-02-28T03:49:22;103229.84;;;14.34;31.98
73629;BME280;61924;53.268;-2.458;2023-02-28T03:51:46;103232.76;;;14.05;32.04
73629;BME280;61924;53.268;-2.458;2023-02-28T03:54:14;103235.37;;;13.76;32.02
73629;BME280;61924;53.268;-2.458;2023-02-28T03:56:39;103236.40;;;14.11;31.89
73629;BME280;61924;53.268;-2.458;2023-02-28T03:59:04;103237.41;;;14.16;31.97
73629;BME280;61924;53.268;-2.458;2023-02-28T04:01:30;103233.64;;;14.25;31.82
73629;BME280;61924;53.268;-2.458;2023-02-28T04:03:51;103233.79;;;14.07;31.91
73629;BME280;61924;53.268;-2.458;2023-02-28T04:06:18;103230.91;;;13.87;31.89
73629;BME280;61924;53.268;-2.458;2023-02-28T04:08:43;103233.22;;;13.71;31.99
73629;BME280;61924;53.268;-2.458;2023-02-28T04:11:18;103231.58;;;13.99;32.02
73629;BME280;61924;53.268;-2.458;2023-02-28T04:13:33;103229.14;;;13.73;32.19
73629;BME280;61924;53.268;-2.458;2023-02-28T04:15:59;103231.93;;;14.07;31.97
73629;BME280;61924;53.268;-2.458;2023-02-28T04:18:24;103233.84;;;13.44;32.16
73629;BME280;61924;53.268;-2.458;2023-02-28T04:20:50;103231.78;;;13.85;31.95
73629;BME280;61924;53.268;-2.458;2023-02-28T04:23:15;103232.73;;;13.55;31.93
73629;BME280;61924;53.268;-2.458;2023-02-28T04:25:41;103234.07;;;13.64;32.12
73629;BME280;61924;53.268;-2.458;2023-02-28T04:28:07;103239.33;;;13.35;32.16
73629;BME280;61924;53.268;-2.458;2023-02-28T04:30:32;103236.87;;;13.72;32.01
73629;BME280;61924;53.268;-2.458;2023-02-28T04:32:58;103234.80;;;13.52;32.06
73629;BME280;61924;53.268;-2.458;2023-02-28T04:35:23;103237.81;;;13.51;32.18
73629;BME280;61924;53.268;-2.458;2023-02-28T04:37:49;103238.44;;;13.89;32.00
73629;BME280;61924;53.268;-2.458;2023-02-28T04:40:15;103240.22;;;13.60;32.24
73629;BME280;61924;53.268;-2.458;2023-02-28T04:42:40;103238.66;;;13.37;32.15
73629;BME280;61924;53.268;-2.458;2023-02-28T04:45:06;103235.91;;;13.53;32.09
73629;BME280;61924;53.268;-2.458;2023-02-28T04:47:30;103234.62;;;13.25;32.13
73629;BME280;61924;53.268;-2.458;2023-02-28T04:49:56;103232.42;;;12.96;32.16
73629;BME280;61924;53.268;-2.458;2023-02-28T04:52:22;103234.03;;;13.40;32.15
73629;BME280;61924;53.268;-2.458;2023-02-28T04:54:47;103232.85;;;13.08;31.99
73629;BME280;61924;53.268;-2.458;2023-02-28T04:57:12;103235.38;;;13.50;32.03
73629;BME280;61924;53.268;-2.458;2023-02-28T04:59:38;103238.30;;;13.13;32.14
73629;BME280;61924;53.268;-2.458;2023-02-28T05:02:04;103238.36;;;13.34;32.06
73629;BME280;61924;53.268;-2.458;2023-02-28T05:04:29;103240.70;;;13.34;32.11
73629;BME280;61924;53.268;-2.458;2023-02-28T05:06:55;103246.53;;;13.26;32.13
73629;BME280;61924;53.268;-2.458;2023-02-28T05:09:20;103251.27;;;12.95;32.12
73629;BME280;61924;53.268;-2.458;2023-02-28T05:11:46;103250.94;;;13.23;32.11
73629;BME280;61924;53.268;-2.458;2023-02-28T05:14:13;103249.68;;;13.29;31.99
73629;BME280;61924;53.268;-2.458;2023-02-28T05:16:36;103250.67;;;13.10;32.15
73629;BME280;61924;53.268;-2.458;2023-02-28T05:19:02;103248.71;;;12.91;32.16
73629;BME280;61924;53.268;-2.458;2023-02-28T05:21:29;103250.27;;;13.34;32.12
73629;BME280;61924;53.268;-2.458;2023-02-28T05:23:53;103255.00;;;12.72;32.24
73629;BME280;61924;53.268;-2.458;2023-02-28T05:26:17;103251.12;;;12.84;32.26
73629;BME280;61924;53.268;-2.458;2023-02-28T05:28:43;103248.96;;;12.92;32.27
73629;BME280;61924;53.268;-2.458;2023-02-28T05:31:10;103246.28;;;12.94;32.24
73629;BME280;61924;53.268;-2.458;2023-02-28T05:33:34;103248.71;;;12.96;32.19
73629;BME280;61924;53.268;-2.458;2023-02-28T05:36:00;103251.02;;;12.86;32.20
73629;BME280;61924;53.268;-2.458;2023-02-28T05:38:26;103249.57;;;12.85;32.15
73629;BME280;61924;53.268;-2.458;2023-02-28T05:40:51;103248.08;;;13.07;32.11
73629;BME280;61924;53.268;-2.458;2023-02-28T05:43:17;103253.20;;;12.70;32.21
73629;BME280;61924;53.268;-2.458;2023-02-28T05:45:42;103249.91;;;13.33;32.05
73629;BME280;61924;53.268;-2.458;2023-02-28T05:48:08;103251.10;;;12.85;32.19
73629;BME280;61924;53.268;-2.458;2023-02-28T05:50:32;103250.03;;;12.73;32.21
73629;BME280;61924;53.268;-2.458;2023-02-28T05:52:58;103251.53;;;12.93;32.10
73629;BME280;61924;53.268;-2.458;2023-02-28T05:55:23;103253.96;;;12.87;32.18
73629;BME280;61924;53.268;-2.458;2023-02-28T05:57:48;103252.65;;;12.79;32.16
73629;BME280;61924;53.268;-2.458;2023-02-28T06:00:14;103256.12;;;12.87;32.11
73629;BME280;61924;53.268;-2.458;2023-02-28T06:02:39;103257.85;;;12.79;32.19
73629;BME280;61924;53.268;-2.458;2023-02-28T06:05:05;103261.78;;;13.05;32.02
73629;BME280;61924;53.268;-2.458;2023-02-28T06:07:30;103263.45;;;12.65;32.20
73629;BME280;61924;53.268;-2.458;2023-02-28T06:09:56;103264.86;;;12.52;32.09
73629;BME280;61924;53.268;-2.458;2023-02-28T06:12:21;103265.66;;;12.63;32.17
73629;BME280;61924;53.268;-2.458;2023-02-28T06:14:47;103269.08;;;12.89;32.01
73629;BME280;61924;53.268;-2.458;2023-02-28T06:17:13;103265.22;;;14.37;31.00
73629;BME280;61924;53.268;-2.458;2023-02-28T06:19:38;103262.02;;;14.18;31.29
73629;BME280;61924;53.268;-2.458;2023-02-28T06:22:03;103263.95;;;14.45;31.01
73629;BME280;61924;53.268;-2.458;2023-02-28T06:24:29;103266.28;;;14.57;30.96
73629;BME280;61924;53.268;-2.458;2023-02-28T06:26:54;103268.86;;;14.51;31.05
73629;BME280;61924;53.268;-2.458;2023-02-28T06:29:20;103269.11;;;14.42;31.00
73629;BME280;61924;53.268;-2.458;2023-02-28T06:31:45;103271.94;;;14.37;30.88
73629;BME280;61924;53.268;-2.458;2023-02-28T06:34:10;103274.82;;;14.43;30.90
73629;BME280;61924;53.268;-2.458;2023-02-28T06:36:36;103276.05;;;14.74;30.54
73629;BME280;61924;53.268;-2.458;2023-02-28T06:39:01;103274.93;;;14.23;30.84
73629;BME280;61924;53.268;-2.458;2023-02-28T06:41:27;103276.16;;;14.98;30.35
73629;BME280;61924;53.268;-2.458;2023-02-28T06:43:53;103281.77;;;14.80;30.50
73629;BME280;61924;53.268;-2.458;2023-02-28T06:46:18;103279.80;;;14.49;30.63
73629;BME280;61924;53.268;-2.458;2023-02-28T06:48:44;103280.55;;;15.11;30.31
73629;BME280;61924;53.268;-2.458;2023-02-28T06:51:10;103285.89;;;14.93;30.43
73629;BME280;61924;53.268;-2.458;2023-02-28T06:53:34;103288.33;;;14.67;30.52
73629;BME280;61924;53.268;-2.458;2023-02-28T06:55:59;103291.22;;;14.91;30.28
73629;BME280;61924;53.268;-2.458;2023-02-28T06:58:25;103296.68;;;14.79;30.28
73629;BME280;61924;53.268;-2.458;2023-02-28T07:00:51;103296.17;;;14.48;30.69
73629;BME280;61924;53.268;-2.458;2023-02-28T07:03:16;103296.48;;;14.75;30.34
73629;BME280;61924;53.268;-2.458;2023-02-28T07:05:42;103298.20;;;14.98;30.16
73629;BME280;61924;53.268;-2.458;2023-02-28T07:08:07;103298.74;;;15.11;29.79
73629;BME280;61924;53.268;-2.458;2023-02-28T07:10:32;103301.99;;;14.63;29.45
73629;BME280;61924;53.268;-2.458;2023-02-28T07:12:57;103303.05;;;14.53;29.50
73629;BME280;61924;53.268;-2.458;2023-02-28T07:15:22;103296.86;;;15.42;29.09
73629;BME280;61924;53.268;-2.458;2023-02-28T07:17:48;103295.36;;;15.19;29.11
73629;BME280;61924;53.268;-2.458;2023-02-28T07:20:14;103293.92;;;15.03;29.35
73629;BME280;61924;53.268;-2.458;2023-02-28T07:22:39;103294.29;;;15.08;29.24
73629;BME280;61924;53.268;-2.458;2023-02-28T07:25:05;103293.89;;;15.19;29.26
73629;BME280;61924;53.268;-2.458;2023-02-28T07:27:29;103290.37;;;15.11;29.28
73629;BME280;61924;53.268;-2.458;2023-02-28T07:29:54;103293.35;;;15.39;29.15
73629;BME280;61924;53.268;-2.458;2023-02-28T07:32:20;103298.35;;;15.17;29.24
73629;BME280;61924;53.268;-2.458;2023-02-28T07:34:45;103302.06;;;14.69;29.43
73629;BME280;61924;53.268;-2.458;2023-02-28T07:37:12;103301.98;;;14.90;29.47
73629;BME280;61924;53.268;-2.458;2023-02-28T07:39:37;103305.75;;;14.82;29.51
73629;BME280;61924;53.268;-2.458;2023-02-28T07:42:04;103312.56;;;14.94;29.36
73629;BME280;61924;53.268;-2.458;2023-02-28T07:44:28;103313.64;;;15.22;29.35
73629;BME280;61924;53.268;-2.458;2023-02-28T07:46:53;103313.95;;;15.07;29.82
73629;BME280;61924;53.268;-2.458;2023-02-28T07:49:18;103316.81;;;14.78;30.23
73629;BME280;61924;53.268;-2.458;2023-02-28T07:51:44;103318.90;;;14.64;30.35
73629;BME280;61924;53.268;-2.458;2023-02-28T07:54:09;103319.55;;;14.52;30.34
73629;BME280;61924;53.268;-2.458;2023-02-28T07:56:34;103321.05;;;14.86;29.81
73629;BME280;61924;53.268;-2.458;2023-02-28T07:58:59;103320.96;;;14.48;30.03
73629;BME280;61924;53.268;-2.458;2023-02-28T08:01:25;103324.76;;;14.71;32.24
73629;BME280;61924;53.268;-2.458;2023-02-28T08:03:50;103323.29;;;14.98;33.13
73629;BME280;61924;53.268;-2.458;2023-02-28T08:06:18;103321.87;;;14.64;32.72
73629;BME280;61924;53.268;-2.458;2023-02-28T08:08:42;103319.97;;;15.49;31.83
73629;BME280;61924;53.268;-2.458;2023-02-28T08:11:07;103319.57;;;15.22;31.16
73629;BME280;61924;53.268;-2.458;2023-02-28T08:13:33;103320.02;;;15.36;30.91
73629;BME280;61924;53.268;-2.458;2023-02-28T08:16:01;103318.03;;;15.32;30.72
73629;BME280;61924;53.268;-2.458;2023-02-28T08:18:24;103319.55;;;15.19;30.62
73629;BME280;61924;53.268;-2.458;2023-02-28T08:20:49;103317.05;;;15.19;30.33
73629;BME280;61924;53.268;-2.458;2023-02-28T08:23:15;103322.70;;;15.27;29.90
73629;BME280;61924;53.268;-2.458;2023-02-28T08:25:40;103326.74;;;15.57;30.11
73629;BME280;61924;53.268;-2.458;2023-02-28T08:28:05;103326.42;;;15.91;30.02
73629;BME280;61924;53.268;-2.458;2023-02-28T08:30:30;103325.13;;;15.88;29.96
73629;BME280;61924;53.268;-2.458;2023-02-28T08:32:56;103321.87;;;15.73;30.07
73629;BME280;61924;53.268;-2.458;2023-02-28T08:35:21;103321.98;;;15.75;31.14
73629;BME280;61924;53.268;-2.458;2023-02-28T08:37:47;103319.17;;;15.82;33.33
73629;BME280;61924;53.268;-2.458;2023-02-28T08:40:12;103319.29;;;15.68;35.44
73629;BME280;61924;53.268;-2.458;2023-02-28T08:42:37;103324.96;;;16.36;36.03
73629;BME280;61924;53.268;-2.458;2023-02-28T08:45:03;103327.60;;;15.62;37.73
73629;BME280;61924;53.268;-2.458;2023-02-28T08:47:27;103325.48;;;15.66;37.47
73629;BME280;61924;53.268;-2.458;2023-02-28T08:49:53;103326.12;;;15.92;35.66
73629;BME280;61924;53.268;-2.458;2023-02-28T08:52:18;103325.15;;;16.00;34.37
73629;BME280;61924;53.268;-2.458;2023-02-28T08:54:44;103327.31;;;15.97;34.21
73629;BME280;61924;53.268;-2.458;2023-02-28T08:57:09;103330.42;;;15.80;34.30
73629;BME280;61924;53.268;-2.458;2023-02-28T08:59:35;103328.46;;;15.72;34.40
73629;BME280;61924;53.268;-2.458;2023-02-28T09:02:00;103327.28;;;15.78;34.02
73629;BME280;61924;53.268;-2.458;2023-02-28T09:04:25;103321.87;;;15.74;33.56
73629;BME280;61924;53.268;-2.458;2023-02-28T09:06:51;103327.24;;;15.93;33.34
73629;BME280;61924;53.268;-2.458;2023-02-28T09:09:16;103326.05;;;15.68;33.08
73629;BME280;61924;53.268;-2.458;2023-02-28T09:11:42;103324.47;;;15.90;33.07
73629;BME280;61924;53.268;-2.458;2023-02-28T09:14:08;103324.66;;;15.65;32.89
73629;BME280;61924;53.268;-2.458;2023-02-28T09:16:33;103323.35;;;16.23;32.66
73629;BME280;61924;53.268;-2.458;2023-02-28T09:18:59;103325.61;;;16.22;32.59
73629;BME280;61924;53.268;-2.458;2023-02-28T09:21:24;103327.80;;;15.79;32.56
73629;BME280;61924;53.268;-2.458;2023-02-28T09:23:50;103331.72;;;16.06;32.41
73629;BME280;61924;53.268;-2.458;2023-02-28T09:26:16;103331.62;;;16.18;32.35
73629;BME280;61924;53.268;-2.458;2023-02-28T09:28:40;103333.78;;;15.96;32.39
73629;BME280;61924;53.268;-2.458;2023-02-28T09:31:06;103336.85;;;16.21;32.23
73629;BME280;61924;53.268;-2.458;2023-02-28T09:33:31;103334.98;;;16.00;32.14
73629;BME280;61924;53.268;-2.458;2023-02-28T09:35:59;103334.75;;;16.18;32.18
73629;BME280;61924;53.268;-2.458;2023-02-28T09:38:22;103333.95;;;15.73;32.20
73629;BME280;61924;53.268;-2.458;2023-02-28T09:40:50;103335.79;;;15.97;32.10
73629;BME280;61924;53.268;-2.458;2023-02-28T09:43:14;103339.89;;;15.90;32.25
73629;BME280;61924;53.268;-2.458;2023-02-28T09:45:40;103341.32;;;16.24;32.07
73629;BME280;61924;53.268;-2.458;2023-02-28T09:48:07;103342.61;;;16.52;31.97
73629;BME280;61924;53.268;-2.458;2023-02-28T09:50:32;103342.60;;;15.87;32.31
73629;BME280;61924;53.268;-2.458;2023-02-28T09:52:55;103341.46;;;15.85;32.22
73629;BME280;61924;53.268;-2.458;2023-02-28T09:55:28;103341.66;;;15.65;32.15
73629;BME280;61924;53.268;-2.458;2023-02-28T09:57:45;103348.04;;;15.44;32.20
73629;BME280;61924;53.268;-2.458;2023-02-28T10:00:15;103345.30;;;16.13;31.98
73629;BME280;61924;53.268;-2.458;2023-02-28T10:02:48;103348.47;;;16.16;32.07
73629;BME280;61924;53.268;-2.458;2023-02-28T10:05:04;103351.98;;;16.13;32.19
73629;BME280;61924;53.268;-2.458;2023-02-28T10:07:46;103349.88;;;15.97;32.29
73629;BME280;61924;53.268;-2.458;2023-02-28T10:09:54;103353.26;;;15.97;32.19
73629;BME280;61924;53.268;-2.458;2023-02-28T10:12:17;103355.07;;;16.02;32.16
73629;BME280;61924;53.268;-2.458;2023-02-28T10:14:45;103355.44;;;16.17;32.08
73629;BME280;61924;53.268;-2.458;2023-02-28T10:17:12;103355.20;;;15.75;32.09
73629;BME280;61924;53.268;-2.458;2023-02-28T10:19:40;103354.01;;;15.51;32.05
73629;BME280;61924;53.268;-2.458;2023-02-28T10:22:01;103353.50;;;16.08;32.00
73629;BME280;61924;53.268;-2.458;2023-02-28T10:24:29;103357.08;;;15.96;31.98
73629;BME280;61924;53.268;-2.458;2023-02-28T10:26:52;103356.73;;;16.01;31.84
73629;BME280;61924;53.268;-2.458;2023-02-28T10:29:15;103352.68;;;15.86;32.07
73629;BME280;61924;53.268;-2.458;2023-02-28T10:31:41;103348.53;;;16.05;31.98
73629;BME280;61924;53.268;-2.458;2023-02-28T10:34:07;103350.77;;;15.90;31.85
73629;BME280;61924;53.268;-2.458;2023-02-28T10:36:32;103355.11;;;16.01;31.75
73629;BME280;61924;53.268;-2.458;2023-02-28T10:38:57;103355.03;;;16.01;31.69
73629;BME280;61924;53.268;-2.458;2023-02-28T10:41:29;103354.08;;;16.41;31.70
73629;BME280;61924;53.268;-2.458;2023-02-28T10:43:48;103352.74;;;16.32;31.72
73629;BME280;61924;53.268;-2.458;2023-02-28T10:46:16;103350.36;;;16.16;31.60
73629;BME280;61924;53.268;-2.458;2023-02-28T10:48:41;103348.44;;;15.88;31.67
73629;BME280;61924;53.268;-2.458;2023-02-28T10:51:06;103345.95;;;16.11;31.62
73629;BME280;61924;53.268;-2.458;2023-02-28T10:53:37;103343.97;;;15.72;31.70
73629;BME280;61924;53.268;-2.458;2023-02-28T10:55:58;103339.32;;;15.78;31.78
73629;BME280;61924;53.268;-2.458;2023-02-28T10:58:21;103337.49;;;15.50;31.68
73629;BME280;61924;53.268;-2.458;2023-02-28T11:00:46;103339.62;;;15.78;31.47
73629;BME280;61924;53.268;-2.458;2023-02-28T11:03:24;103337.67;;;15.92;31.48
73629;BME280;61924;53.268;-2.458;2023-02-28T11:05:37;103336.22;;;15.89;31.60
73629;BME280;61924;53.268;-2.458;2023-02-28T11:08:06;103334.34;;;15.78;31.46
73629;BME280;61924;53.268;-2.458;2023-02-28T11:10:30;103330.94;;;15.90;31.47
73629;BME280;61924;53.268;-2.458;2023-02-28T11:12:55;103330.86;;;15.97;31.40
73629;BME280;61924;53.268;-2.458;2023-02-28T11:15:23;103329.87;;;15.50;31.53
73629;BME280;61924;53.268;-2.458;2023-02-28T11:17:54;103330.72;;;15.61;31.42
73629;BME280;61924;53.268;-2.458;2023-02-28T11:20:20;103328.59;;;15.55;31.43
73629;BME280;61924;53.268;-2.458;2023-02-28T11:22:38;103326.43;;;15.91;31.43
73629;BME280;61924;53.268;-2.458;2023-02-28T11:25:07;103322.44;;;15.58;31.60
73629;BME280;61924;53.268;-2.458;2023-02-28T11:27:44;103320.94;;;15.89;31.31
73629;BME280;61924;53.268;-2.458;2023-02-28T11:29:53;103318.50;;;15.79;31.39
73629;BME280;61924;53.268;-2.458;2023-02-28T11:32:20;103318.89;;;15.68;31.34
73629;BME280;61924;53.268;-2.458;2023-02-28T11:34:46;103318.06;;;15.60;31.39
73629;BME280;61924;53.268;-2.458;2023-02-28T11:37:13;103312.97;;;15.70;31.19
73629;BME280;61924;53.268;-2.458;2023-02-28T11:39:36;103310.01;;;16.20;31.05
73629;BME280;61924;53.268;-2.458;2023-02-28T11:42:11;103310.00;;;15.68;31.21
73629;BME280;61924;53.268;-2.458;2023-02-28T11:44:38;103308.40;;;15.54;31.41
73629;BME280;61924;53.268;-2.458;2023-02-28T11:46:54;103303.32;;;15.47;31.27
73629;BME280;61924;53.268;-2.458;2023-02-28T11:49:27;103304.34;;;15.89;31.26
73629;BME280;61924;53.268;-2.458;2023-02-28T11:51:47;103304.40;;;15.54;31.20
73629;BME280;61924;53.268;-2.458;2023-02-28T11:54:23;103301.35;;;15.09;31.31
73629;BME280;61924;53.268;-2.458;2023-02-28T11:56:37;103299.15;;;15.42;31.35
73629;BME280;61924;53.268;-2.458;2023-02-28T11:59:10;103293.41;;;15.46;31.37
73629;BME280;61924;53.268;-2.458;2023-02-28T12:01:35;103294.16;;;15.45;31.34
73629;BME280;61924;53.268;-2.458;2023-02-28T12:03:58;103292.86;;;15.34;31.30
73629;BME280;61924;53.268;-2.458;2023-02-28T12:06:20;103291.04;;;15.42;31.37
73629;BME280;61924;53.268;-2.458;2023-02-28T12:08:47;103288.17;;;15.24;31.40
73629;BME280;61924;53.268;-2.458;2023-02-28T12:11:11;103285.53;;;15.53;31.25
73629;BME280;61924;53.268;-2.458;2023-02-28T12:13:40;103283.02;;;15.11;31.30
73629;BME280;61924;53.268;-2.458;2023-02-28T12:16:20;103278.67;;;15.26;31.32
73629;BME280;61924;53.268;-2.458;2023-02-28T12:18:30;103275.57;;;14.73;31.51
73629;BME280;61924;53.268;-2.458;2023-02-28T12:20:53;103273.27;;;14.98;31.40
73629;BME280;61924;53.268;-2.458;2023-02-28T12:23:40;103272.95;;;14.96;31.52
73629;BME280;61924;53.268;-2.458;2023-02-28T12:25:44;103270.79;;;15.03;31.39
73629;BME280;61924;53.268;-2.458;2023-02-28T12:28:03;103265.85;;;14.88;31.44
73629;BME280;61924;53.268;-2.458;2023-02-28T12:30:30;103262.03;;;15.08;31.32
73629;BME280;61924;53.268;-2.458;2023-02-28T12:32:56;103261.09;;;14.78;31.46
73629;BME280;61924;53.268;-2.458;2023-02-28T12:35:21;103257.28;;;15.05;31.35